createdAt,value
2017-09-10T00:01:31.243Z,32.00
2017-09-10T00:03:59.942Z,31.90
2017-09-10T00:06:28.636Z,31.90
2017-09-10T00:08:57.324Z,31.90
2017-09-10T00:11:26.364Z,31.90
2017-09-10T00:13:55.094Z,31.80
2017-09-10T00:16:23.716Z,31.80
2017-09-10T00:18:52.535Z,31.80
2017-09-10T00:21:20.787Z,31.80
2017-09-10T00:23:50.218Z,31.70
2017-09-10T00:26:19.162Z,31.70
2017-09-10T00:28:47.890Z,31.60
2017-09-10T00:31:16.826Z,31.50
2017-09-10T00:33:45.879Z,31.60
2017-09-10T00:36:14.812Z,31.60
2017-09-10T00:38:43.703Z,31.60
2017-09-10T00:41:12.805Z,31.60
2017-09-10T00:43:42.067Z,31.50
2017-09-10T00:46:10.692Z,31.60
2017-09-10T00:48:39.407Z,31.60
2017-09-10T00:51:08.178Z,31.50
2017-09-10T00:53:37.249Z,31.50
2017-09-10T00:56:06.171Z,31.50
2017-09-10T00:58:34.960Z,31.40
2017-09-10T01:01:03.225Z,31.40
2017-09-10T01:03:32.183Z,31.40
2017-09-10T01:06:00.454Z,31.50
2017-09-10T01:08:29.389Z,31.40
2017-09-10T01:11:00.647Z,31.40
2017-09-10T01:13:29.439Z,31.40
2017-09-10T01:15:58.226Z,31.20
2017-09-10T01:18:27.005Z,31.20
2017-09-10T01:20:56.059Z,31.20
2017-09-10T01:23:24.624Z,31.20
2017-09-10T01:25:54.306Z,31.00
2017-09-10T01:28:23.188Z,31.00
2017-09-10T01:30:52.139Z,31.00
2017-09-10T01:33:21.239Z,31.10
2017-09-10T01:35:50.179Z,31.00
2017-09-10T01:38:18.895Z,31.10
2017-09-10T01:40:48.683Z,30.90
2017-09-10T01:43:17.422Z,30.90
2017-09-10T01:45:46.675Z,30.90
2017-09-10T01:48:15.667Z,30.90
2017-09-10T01:50:44.402Z,31.00
2017-09-10T01:53:13.231Z,31.00
2017-09-10T01:55:42.055Z,30.90
2017-09-10T01:58:10.416Z,30.90
2017-09-10T02:00:39.511Z,31.00
2017-09-10T02:03:08.403Z,31.00
2017-09-10T02:05:37.333Z,31.00
2017-09-10T02:08:05.602Z,31.00
2017-09-10T02:10:35.396Z,31.00
2017-09-10T02:13:03.750Z,30.90
2017-09-10T02:15:32.308Z,30.90
2017-09-10T02:18:01.252Z,30.90
2017-09-10T02:20:29.939Z,30.90
2017-09-10T02:22:59.234Z,30.70
2017-09-10T02:25:28.227Z,30.60
2017-09-10T02:27:57.014Z,30.60
2017-09-10T02:30:25.895Z,30.50
2017-09-10T02:32:54.256Z,30.50
2017-09-10T02:35:23.034Z,30.40
2017-09-10T02:37:51.767Z,30.40
2017-09-10T02:40:20.659Z,30.40
2017-09-10T02:42:49.499Z,30.40
2017-09-10T02:45:18.332Z,30.40
2017-09-10T02:47:47.644Z,30.40
2017-09-10T02:50:16.482Z,30.40
2017-09-10T02:52:45.374Z,30.70
2017-09-10T02:55:15.129Z,30.80
2017-09-10T02:57:44.168Z,30.80
2017-09-10T03:00:13.834Z,30.90
2017-09-10T03:02:42.994Z,30.80
2017-09-10T03:05:11.924Z,31.10
2017-09-10T03:07:40.817Z,31.10
2017-09-10T03:10:09.921Z,31.00
2017-09-10T03:12:38.539Z,31.10
2017-09-10T03:15:07.195Z,31.30
2017-09-10T03:17:35.992Z,31.30
2017-09-10T03:20:04.271Z,31.50
2017-09-10T03:22:32.903Z,31.60
2017-09-10T03:25:01.249Z,31.70
2017-09-10T03:27:30.025Z,31.80
2017-09-10T03:29:58.531Z,31.80
2017-09-10T03:32:28.368Z,32.20
2017-09-10T03:34:57.258Z,32.10
2017-09-10T03:37:25.987Z,32.30
2017-09-10T03:39:54.699Z,32.40
2017-09-10T03:42:23.370Z,32.60
2017-09-10T03:44:51.711Z,32.60
2017-09-10T03:47:20.415Z,32.60
2017-09-10T03:49:50.012Z,32.80
2017-09-10T03:52:18.826Z,32.90
2017-09-10T03:54:47.820Z,33.00
2017-09-10T03:57:16.714Z,33.20
2017-09-10T03:59:45.401Z,33.40
2017-09-10T04:02:14.211Z,33.50
2017-09-10T04:04:42.989Z,33.60
2017-09-10T04:07:11.783Z,33.70
2017-09-10T04:09:40.882Z,33.70
2017-09-10T04:12:09.553Z,34.00
2017-09-10T04:14:38.449Z,34.30
2017-09-10T04:17:07.187Z,34.20
2017-09-10T04:19:35.782Z,34.20
2017-09-10T04:22:04.486Z,34.60
2017-09-10T04:24:33.517Z,34.80
2017-09-10T04:27:02.351Z,35.00
2017-09-10T04:29:31.081Z,35.30
2017-09-10T04:31:59.695Z,35.80
2017-09-10T04:34:27.978Z,36.50
2017-09-10T04:36:57.040Z,38.80
2017-09-10T04:39:25.443Z,38.70
2017-09-10T04:41:53.750Z,38.90
2017-09-10T04:44:22.083Z,39.10
2017-09-10T04:46:50.444Z,38.90
2017-09-10T04:49:18.723Z,38.80
2017-09-10T04:51:47.263Z,38.70
2017-09-10T04:54:16.946Z,39.80
2017-09-10T04:56:45.727Z,39.80
2017-09-10T04:59:14.032Z,40.70
2017-09-10T05:01:42.407Z,41.30
2017-09-10T05:04:11.891Z,41.50
2017-09-10T05:06:40.176Z,41.40
2017-09-10T05:22:06.959Z,40.50
2017-09-10T05:24:35.706Z,40.10
2017-09-10T05:27:03.987Z,40.00
2017-09-10T05:29:32.803Z,40.60
2017-09-10T05:32:01.459Z,41.00
2017-09-10T05:34:30.346Z,41.80
2017-09-10T05:36:58.730Z,42.50
2017-09-10T05:39:28.347Z,43.40
2017-09-10T05:41:56.648Z,43.40
2017-09-10T05:44:25.547Z,43.60
2017-09-10T05:46:53.824Z,43.60
2017-09-10T05:49:22.639Z,43.00
2017-09-10T05:51:52.179Z,42.80
2017-09-10T05:54:20.436Z,41.90
2017-09-10T05:56:49.066Z,41.60
2017-09-10T05:59:18.982Z,40.90
2017-09-10T06:01:48.520Z,39.80
2017-09-10T06:04:17.359Z,39.80
2017-09-10T06:06:46.354Z,39.90
2017-09-10T06:09:15.245Z,39.90
2017-09-10T06:11:44.751Z,40.00
2017-09-10T06:14:14.116Z,40.00
2017-09-10T06:16:42.851Z,40.20
2017-09-10T06:19:11.791Z,40.70
2017-09-10T06:21:40.930Z,41.10
2017-09-10T06:24:09.619Z,41.40
2017-09-10T06:26:38.558Z,41.70
2017-09-10T06:29:07.492Z,42.70
2017-09-10T06:31:36.116Z,43.10
2017-09-10T06:34:05.688Z,43.90
2017-09-10T06:36:34.459Z,43.90
2017-09-10T06:39:03.243Z,43.10
2017-09-10T06:41:31.966Z,42.10
2017-09-10T06:44:00.454Z,41.60
2017-09-10T06:46:29.393Z,41.10
2017-09-10T06:48:57.675Z,40.80
2017-09-10T06:51:26.672Z,41.20
2017-09-10T06:53:55.844Z,40.60
2017-09-10T06:56:25.472Z,40.10
2017-09-10T06:58:54.568Z,40.10
2017-09-10T07:01:23.563Z,40.20
2017-09-10T07:03:52.396Z,40.40
2017-09-10T07:06:20.801Z,39.90
2017-09-10T07:08:49.480Z,39.80
2017-09-10T07:11:19.704Z,39.70
2017-09-10T07:13:48.635Z,39.70
2017-09-10T07:16:17.087Z,40.10
2017-09-10T07:18:46.115Z,40.00
2017-09-10T07:21:14.532Z,40.00
2017-09-10T07:23:42.823Z,39.80
2017-09-10T07:26:11.075Z,39.90
2017-09-10T07:28:39.435Z,39.90
2017-09-10T07:31:07.694Z,40.10
2017-09-10T07:33:35.948Z,40.10
2017-09-10T07:36:04.307Z,39.90
2017-09-10T07:38:32.581Z,39.90
2017-09-10T07:41:00.835Z,40.20
2017-09-10T07:43:29.339Z,40.50
2017-09-10T07:45:57.615Z,40.10
2017-09-10T07:48:25.891Z,40.00
2017-09-10T07:50:54.244Z,40.00
2017-09-10T07:53:22.514Z,40.20
2017-09-10T07:55:51.780Z,40.10
2017-09-10T07:58:20.659Z,40.30
2017-09-10T08:00:48.929Z,40.10
2017-09-10T08:03:17.195Z,40.20
2017-09-10T08:05:46.884Z,39.90
2017-09-10T08:08:15.723Z,40.00
2017-09-10T08:10:44.523Z,40.50
2017-09-10T08:13:14.187Z,42.60
2017-09-10T08:15:43.136Z,42.50
2017-09-10T08:18:12.663Z,43.40
2017-09-10T08:20:41.715Z,43.40
2017-09-10T08:23:10.756Z,42.90
2017-09-10T08:25:39.688Z,42.40
2017-09-10T08:28:08.468Z,41.40
2017-09-10T08:30:37.236Z,40.80
2017-09-10T08:33:05.979Z,40.20
2017-09-10T08:35:34.963Z,40.00
2017-09-10T08:38:03.755Z,39.80
2017-09-10T08:40:32.707Z,39.70
2017-09-10T08:43:02.256Z,39.80
2017-09-10T08:45:31.190Z,40.00
2017-09-10T08:48:00.092Z,39.90
2017-09-10T08:50:29.043Z,39.90
2017-09-10T08:52:57.923Z,39.90
2017-09-10T08:55:26.800Z,40.10
2017-09-10T08:57:55.788Z,39.80
2017-09-10T09:00:24.695Z,39.80
2017-09-10T09:02:54.261Z,39.90
2017-09-10T09:05:23.449Z,39.80
2017-09-10T09:07:51.998Z,39.80
2017-09-10T09:10:22.244Z,39.60
2017-09-10T09:12:52.244Z,39.40
2017-09-10T09:15:23.560Z,39.60
2017-09-10T09:17:52.492Z,39.60
2017-09-10T09:20:22.035Z,39.50
2017-09-10T09:22:50.662Z,39.50
2017-09-10T09:25:19.048Z,39.50
2017-09-10T09:27:47.787Z,39.60
2017-09-10T09:30:16.618Z,39.60
2017-09-10T09:32:44.979Z,39.40
2017-09-10T09:35:13.804Z,39.70
2017-09-10T09:37:42.690Z,39.50
2017-09-10T09:40:11.584Z,39.40
2017-09-10T09:42:40.523Z,39.40
2017-09-10T09:45:09.359Z,39.40
2017-09-10T09:47:38.317Z,39.40
2017-09-10T09:50:07.128Z,39.20
2017-09-10T09:52:36.107Z,39.40
2017-09-10T09:55:05.007Z,39.40
2017-09-10T09:57:33.831Z,39.40
2017-09-10T10:00:03.259Z,39.30
2017-09-10T10:02:33.048Z,39.30
2017-09-10T10:05:01.324Z,39.30
2017-09-10T10:07:29.991Z,39.10
2017-09-10T10:09:59.276Z,39.00
2017-09-10T10:12:27.611Z,39.00
2017-09-10T10:14:57.144Z,39.10
2017-09-10T10:17:25.531Z,39.10
2017-09-10T10:19:53.800Z,39.00
2017-09-10T10:22:22.122Z,39.00
2017-09-10T10:24:51.249Z,39.10
2017-09-10T10:27:21.993Z,39.20
2017-09-10T10:29:51.353Z,39.10
2017-09-10T10:32:21.391Z,39.10
2017-09-10T10:34:50.768Z,39.00
2017-09-10T10:37:19.919Z,38.70
2017-09-10T10:39:49.591Z,38.80
2017-09-10T10:42:18.431Z,38.80
2017-09-10T10:44:48.194Z,38.80
2017-09-10T10:47:17.108Z,38.80
2017-09-10T10:49:46.727Z,38.60
2017-09-10T10:52:16.170Z,38.60
2017-09-10T10:54:45.030Z,38.60
2017-09-10T10:57:14.395Z,38.50
2017-09-10T10:59:43.091Z,38.50
2017-09-10T11:02:11.994Z,38.40
2017-09-10T11:04:40.979Z,38.50
2017-09-10T11:07:09.267Z,38.50
2017-09-10T11:09:37.608Z,38.40
2017-09-10T11:12:05.967Z,39.00
2017-09-10T11:14:34.768Z,39.50
2017-09-10T11:17:03.043Z,39.50
2017-09-10T11:19:32.202Z,39.30
2017-09-10T11:22:01.747Z,38.90
2017-09-10T11:24:30.462Z,38.90
2017-09-10T11:26:58.821Z,38.70
2017-09-10T11:29:27.579Z,38.70
2017-09-10T11:31:57.302Z,38.60
2017-09-10T11:34:26.303Z,38.60
2017-09-10T11:36:55.132Z,38.60
2017-09-10T11:39:23.795Z,38.70
2017-09-10T11:41:52.679Z,38.50
2017-09-10T11:44:21.524Z,38.40
2017-09-10T11:46:51.417Z,38.40
2017-09-10T11:49:19.840Z,38.40
2017-09-10T11:51:49.611Z,38.30
2017-09-10T11:54:18.503Z,38.30
2017-09-10T11:56:47.009Z,38.20
2017-09-10T11:59:15.344Z,38.10
2017-09-10T12:01:44.322Z,38.10
2017-09-10T12:04:13.784Z,38.10
2017-09-10T12:06:42.575Z,38.00
2017-09-10T12:09:11.408Z,38.20
2017-09-10T12:11:40.923Z,38.10
2017-09-10T12:14:09.799Z,37.90
2017-09-10T12:16:38.591Z,37.80
2017-09-10T12:19:07.793Z,37.70
2017-09-10T12:21:36.723Z,37.70
2017-09-10T12:24:05.352Z,37.80
2017-09-10T12:26:33.684Z,37.80
2017-09-10T12:29:01.943Z,37.70
2017-09-10T12:31:30.208Z,37.70
2017-09-10T12:33:59.158Z,37.60
2017-09-10T12:36:28.810Z,37.60
2017-09-10T12:38:57.473Z,37.60
2017-09-10T12:41:27.055Z,37.40
2017-09-10T12:43:55.799Z,37.40
2017-09-10T12:46:24.086Z,37.40
2017-09-10T12:48:53.223Z,37.40
2017-09-10T12:51:21.492Z,37.30
2017-09-10T12:53:50.179Z,37.30
2017-09-10T12:56:19.074Z,37.20
2017-09-10T12:58:47.868Z,37.10
2017-09-10T13:01:16.748Z,37.10
2017-09-10T13:03:45.495Z,37.00
2017-09-10T13:06:14.095Z,37.00
2017-09-10T13:08:42.379Z,36.90
2017-09-10T13:11:10.997Z,36.80
2017-09-10T13:13:39.415Z,36.90
2017-09-10T13:16:07.667Z,36.90
2017-09-10T13:18:36.574Z,36.70
2017-09-10T13:21:05.466Z,36.50
2017-09-10T13:23:35.225Z,36.50
2017-09-10T13:26:03.684Z,36.50
2017-09-10T13:28:32.614Z,36.40
2017-09-10T13:31:01.301Z,36.50
2017-09-10T13:33:30.487Z,36.40
2017-09-10T13:35:59.314Z,36.30
2017-09-10T13:38:28.915Z,36.30
2017-09-10T13:40:57.343Z,36.20
2017-09-10T13:43:25.598Z,36.30
2017-09-10T13:45:54.604Z,36.20
2017-09-10T13:48:22.963Z,36.10
2017-09-10T13:50:51.243Z,36.10
2017-09-10T13:53:19.511Z,36.10
2017-09-10T13:55:47.887Z,36.10
2017-09-10T13:58:16.172Z,36.00
2017-09-10T14:00:44.454Z,36.00
2017-09-10T14:03:12.879Z,36.00
2017-09-10T14:05:41.304Z,35.80
2017-09-10T14:08:10.299Z,35.80
2017-09-10T14:10:38.694Z,35.70
2017-09-10T14:13:06.966Z,35.70
2017-09-10T14:15:35.388Z,35.60
2017-09-10T14:18:04.247Z,35.60
2017-09-10T14:20:33.884Z,35.70
2017-09-10T14:23:02.710Z,35.60
2017-09-10T14:25:31.528Z,35.60
2017-09-10T14:28:01.355Z,35.50
2017-09-10T14:30:30.222Z,35.50
2017-09-10T14:32:59.215Z,35.50
2017-09-10T14:35:28.152Z,35.50
2017-09-10T14:37:57.015Z,35.50
2017-09-10T14:40:26.915Z,35.40
2017-09-10T14:42:55.604Z,35.40
2017-09-10T14:45:24.397Z,35.40
2017-09-10T14:47:53.616Z,35.40
2017-09-10T14:50:21.892Z,35.30
2017-09-10T14:52:51.518Z,35.30
2017-09-10T14:55:20.479Z,35.30
2017-09-10T14:57:49.447Z,35.20
2017-09-10T15:00:18.448Z,35.20
2017-09-10T15:02:50.589Z,35.20
2017-09-10T15:05:19.004Z,35.20
2017-09-10T15:07:47.272Z,35.20
2017-09-10T15:10:16.595Z,35.10
2017-09-10T15:12:45.154Z,35.10
2017-09-10T15:15:13.965Z,35.10
2017-09-10T15:17:42.339Z,35.10
2017-09-10T15:20:11.026Z,35.00
2017-09-10T15:22:39.966Z,35.00
2017-09-10T15:25:08.963Z,35.00
2017-09-10T15:27:37.794Z,35.00
2017-09-10T15:30:06.687Z,35.00
2017-09-10T15:32:35.608Z,35.00
2017-09-10T15:35:05.249Z,34.90
2017-09-10T15:37:33.761Z,34.90
2017-09-10T15:40:02.741Z,34.90
2017-09-10T15:42:31.572Z,34.80
2017-09-10T15:45:00.382Z,34.80
2017-09-10T15:47:29.883Z,34.80
2017-09-10T15:49:58.151Z,34.80
2017-09-10T15:52:27.138Z,34.80
2017-09-10T15:54:55.835Z,34.80
2017-09-10T15:57:24.875Z,34.80
2017-09-10T15:59:53.767Z,34.70
2017-09-10T16:02:22.348Z,34.70
2017-09-10T16:04:50.639Z,34.70
2017-09-10T16:07:18.918Z,34.70
2017-09-10T16:09:47.251Z,34.60
2017-09-10T16:12:16.952Z,34.60
2017-09-10T16:14:45.223Z,34.60
2017-09-10T16:17:13.588Z,34.60
2017-09-10T16:19:41.852Z,34.60
2017-09-10T16:22:10.568Z,34.50
2017-09-10T16:24:39.563Z,34.50
2017-09-10T16:27:08.242Z,34.50
2017-09-10T16:29:37.123Z,34.40
2017-09-10T16:32:06.283Z,34.40
2017-09-10T16:34:35.291Z,34.40
2017-09-10T16:37:04.111Z,34.30
2017-09-10T16:39:32.533Z,34.30
2017-09-10T16:42:01.940Z,34.40
2017-09-10T16:44:31.563Z,34.40
2017-09-10T16:46:59.914Z,34.30
2017-09-10T16:49:28.170Z,34.30
2017-09-10T16:51:56.419Z,34.30
2017-09-10T16:54:24.755Z,34.30
2017-09-10T16:56:53.016Z,34.20
2017-09-10T16:59:21.439Z,34.30
2017-09-10T17:01:49.788Z,34.20
2017-09-10T17:04:19.171Z,34.30
2017-09-10T17:06:47.463Z,34.30
2017-09-10T17:09:16.267Z,34.30
2017-09-10T17:11:45.895Z,34.30
2017-09-10T17:14:15.355Z,34.20
2017-09-10T17:16:44.291Z,34.20
2017-09-10T17:19:13.288Z,34.20
2017-09-10T17:21:42.337Z,34.20
2017-09-10T17:24:11.430Z,34.20
2017-09-10T17:26:40.319Z,34.20
2017-09-10T17:29:08.592Z,34.20
2017-09-10T17:31:36.940Z,34.10
2017-09-10T17:34:05.207Z,34.10
2017-09-10T17:36:34.055Z,34.10
2017-09-10T17:39:02.891Z,34.10
2017-09-10T17:41:31.716Z,34.10
2017-09-10T17:43:59.971Z,34.10
2017-09-10T17:46:28.905Z,34.10
2017-09-10T17:48:57.899Z,34.00
2017-09-10T17:51:26.835Z,34.00
2017-09-10T17:53:55.998Z,34.00
2017-09-10T17:56:25.396Z,34.00
2017-09-10T17:58:54.284Z,34.00
2017-09-10T18:01:23.227Z,34.00
2017-09-10T18:03:52.155Z,33.90
2017-09-10T18:06:21.152Z,33.90
2017-09-10T18:08:50.050Z,33.90
2017-09-10T18:11:18.667Z,33.80
2017-09-10T18:13:48.240Z,33.80
2017-09-10T18:16:18.019Z,33.80
2017-09-10T18:18:46.963Z,33.80
2017-09-10T18:21:15.851Z,33.80
2017-09-10T18:23:44.946Z,33.70
2017-09-10T18:26:13.364Z,33.70
2017-09-10T18:28:42.412Z,33.70
2017-09-10T18:31:11.271Z,33.70
2017-09-10T18:33:40.131Z,33.70
2017-09-10T18:36:09.701Z,33.70
2017-09-10T18:38:38.595Z,33.70
2017-09-10T18:41:07.486Z,33.70
2017-09-10T18:43:36.379Z,33.70
2017-09-10T18:46:04.732Z,33.70
2017-09-10T18:48:33.464Z,33.60
2017-09-10T18:51:02.236Z,33.60
2017-09-10T18:53:30.988Z,33.60
2017-09-10T18:55:59.679Z,33.60
2017-09-10T18:58:28.515Z,33.60
2017-09-10T19:00:57.507Z,33.60
2017-09-10T19:03:26.347Z,33.60
2017-09-10T19:05:55.451Z,33.60
2017-09-10T19:08:24.443Z,33.60
2017-09-10T19:10:53.226Z,33.60
2017-09-10T19:13:22.264Z,33.60
2017-09-10T19:15:51.257Z,33.50
2017-09-10T19:18:20.680Z,33.50
2017-09-10T19:20:49.522Z,33.60
2017-09-10T19:23:18.216Z,33.60
2017-09-10T19:25:46.967Z,33.60
2017-09-10T19:28:16.640Z,33.50
2017-09-10T19:30:45.696Z,33.50
2017-09-10T19:33:14.630Z,33.50
2017-09-10T19:35:43.535Z,33.40
2017-09-10T19:38:12.336Z,33.40
2017-09-10T19:40:41.010Z,33.50
2017-09-10T19:43:09.804Z,33.50
2017-09-10T19:45:38.143Z,33.50
2017-09-10T19:48:06.763Z,33.40
2017-09-10T19:50:36.460Z,33.50
2017-09-10T19:53:05.282Z,33.40
2017-09-10T19:55:34.007Z,33.40
2017-09-10T19:58:02.843Z,33.50
2017-09-10T20:00:31.734Z,33.50
2017-09-10T20:03:00.531Z,33.40
2017-09-10T20:05:29.409Z,33.40
2017-09-10T20:07:58.219Z,33.40
2017-09-10T20:10:26.955Z,33.40
2017-09-10T20:12:55.376Z,33.40
2017-09-10T20:15:24.376Z,33.30
2017-09-10T20:17:53.165Z,33.30
2017-09-10T20:20:22.524Z,33.30
2017-09-10T20:22:51.667Z,33.30
2017-09-10T20:25:20.663Z,33.30
2017-09-10T20:27:49.552Z,33.20
2017-09-10T20:30:18.533Z,33.20
2017-09-10T20:32:46.799Z,33.20
2017-09-10T20:35:15.511Z,33.20
2017-09-10T20:37:44.509Z,33.20
2017-09-10T20:40:13.444Z,33.20
2017-09-10T20:42:42.067Z,33.20
2017-09-10T20:45:10.579Z,33.20
2017-09-10T20:47:39.991Z,33.10
2017-09-10T20:50:08.720Z,33.10
2017-09-10T20:52:37.707Z,33.10
2017-09-10T20:55:07.240Z,33.10
2017-09-10T20:57:35.894Z,33.10
2017-09-10T21:00:04.636Z,33.10
2017-09-10T21:02:33.429Z,33.10
2017-09-10T21:05:02.305Z,33.00
2017-09-10T21:07:31.463Z,33.00
2017-09-10T21:10:00.294Z,33.00
2017-09-10T21:12:29.289Z,33.00
2017-09-10T21:14:58.247Z,33.00
2017-09-10T21:17:26.511Z,33.00
2017-09-10T21:19:55.215Z,33.00
2017-09-10T21:22:23.979Z,33.00
2017-09-10T21:24:53.451Z,33.00
2017-09-10T21:27:22.144Z,33.00
2017-09-10T21:29:51.190Z,33.00
2017-09-10T21:32:20.027Z,32.90
2017-09-10T21:34:48.863Z,33.00
2017-09-10T21:51:01.995Z,33.20
2017-09-10T21:53:30.831Z,33.10
2017-09-10T21:55:59.730Z,33.00
2017-09-10T21:58:28.618Z,32.80
2017-09-10T22:00:57.499Z,32.70
2017-09-10T22:03:26.211Z,32.70
2017-09-10T22:05:55.042Z,32.70
2017-09-10T22:08:23.875Z,32.70
2017-09-10T22:10:52.667Z,32.60
2017-09-10T22:13:21.506Z,32.60
2017-09-10T22:15:50.079Z,32.60
2017-09-10T22:18:19.700Z,32.60
2017-09-10T22:20:48.647Z,32.60
2017-09-10T22:23:17.833Z,32.60
2017-09-10T22:25:46.727Z,32.60
2017-09-10T22:28:15.435Z,32.50
2017-09-10T22:30:44.116Z,32.60
2017-09-10T22:33:12.804Z,32.50
2017-09-10T22:35:41.692Z,32.50
2017-09-10T22:38:10.573Z,32.50
2017-09-10T22:40:39.196Z,32.40
2017-09-10T22:43:08.827Z,32.40
2017-09-10T22:45:37.556Z,32.40
2017-09-10T22:48:06.179Z,32.40
2017-09-10T22:50:35.968Z,32.40
2017-09-10T22:53:04.583Z,32.40
2017-09-10T22:55:34.936Z,32.40
2017-09-10T22:58:03.867Z,32.40
2017-09-10T23:00:32.663Z,32.40
2017-09-10T23:03:01.440Z,32.40
2017-09-10T23:05:30.150Z,32.40
2017-09-10T23:07:58.827Z,32.40
2017-09-10T23:10:27.619Z,32.40
2017-09-10T23:12:56.607Z,32.40
2017-09-10T23:15:25.383Z,32.40
2017-09-10T23:17:54.276Z,32.40
2017-09-10T23:20:22.639Z,32.40
2017-09-10T23:22:50.915Z,32.40
2017-09-10T23:25:19.784Z,32.30
2017-09-10T23:27:48.172Z,32.40
2017-09-10T23:30:16.955Z,32.40
2017-09-10T23:32:45.890Z,32.30
2017-09-10T23:35:14.885Z,32.30
2017-09-10T23:37:43.778Z,32.30
2017-09-10T23:40:12.395Z,32.20
2017-09-10T23:42:42.187Z,32.20
2017-09-10T23:45:10.964Z,32.20
2017-09-10T23:47:39.586Z,32.20
2017-09-10T23:50:09.275Z,32.20
2017-09-10T23:52:38.159Z,32.20
2017-09-10T23:55:06.731Z,32.30
2017-09-10T23:57:35.591Z,32.30
